Pinawa, Canada
Current Conditions -  °F | °C
As of 10:00 PM on Thursday 27 Nov 2014 (Local Time) from CYWG Reporting Station
Overcast Overcast  
Wind Chill: -12°   Ceiling: 12000
Heat Index:   Visibility: 15mi
Dew Point: -4°   Wind: 13mph
Humidity: 66%   Direction: 180°S
Pressure: 30.18"   Gusts: 18mph
Location:  50.15°N, 95.88°W
Report Text: CYWG 280400Z 18011G16KT 15SM OVC120 M15/M20 A3018 RMK AC8 SLP246
Loading
Personal Weather Stations






























Interactive Weather Map New forecast layout! Learn more

10-Day Weather Forecast

Advertisements
Track Severe Weather on mobile